Latest Weather Observations for Mackay

IDQ60801

Issued at 7:22 am EST Tuesday 27 October 2020 (issued every 10 minutes, with the page automatically refreshed every 10 minutes)

About weather observations | Map of weather stations | Latest weather observations for QLD | Other Formats
Station Details ID: 033119 Name: MACKAY M.O Lat: -21.12 Lon: 149.22 Height: 30.26 m
Data from the previous 72 hours. | See also: Recent months at Mackay
Date/Time
EST
Temp
°C
App
Temp
°C
Dew
Point
°C
Rel
Hum
%
Delta-T
°C
Wind Press
QNH
hPa
Press
MSL
hPa
Rain since
9am
mm
Dir  Spd
km/h
Gust
km/h
Spd
kts
Gust
kts
27/07:00am 21.5 23.0 19.8 90 1.1 W 11 17 6 9 1013.4 1013.3 10.4
27/06:30am 21.8 23.9 20.1 90 1.1 WNW 9 13 5 7 1013.1 1013.0 10.4
27/06:00am 21.0 22.9 19.8 93 0.8 NW 9 13 5 7 1012.3 1012.2 10.4
27/05:30am 20.9 23.4 19.9 94 0.6 NW 6 9 3 5 1011.9 1011.8 10.4
27/05:00am 20.7 22.9 19.7 94 0.6 WNW 7 13 4 7 1011.8 1011.7 10.4
27/04:30am 20.8 22.3 19.8 94 0.6 WSW 11 13 6 7 1011.8 1011.7 10.4
27/04:00am 20.8 22.3 19.8 94 0.6 WSW 11 15 6 8 1011.6 1011.5 10.4
27/03:30am 20.8 22.6 19.5 92 0.8 WSW 9 15 5 8 1011.6 1011.5 10.4
27/03:00am 20.8 21.7 19.3 91 1.0 WSW 13 17 7 9 1011.4 1011.3 10.4
27/02:30am 20.9 23.5 20.1 95 0.5 SW 6 15 3 8 1011.6 1011.5 10.4
27/02:00am 20.9 24.5 19.7 93 0.8 CALM 0 6 0 3 1011.5 1011.4 10.4
27/01:30am 20.8 23.1 19.8 94 0.6 SSW 7 11 4 6 1011.6 1011.5 10.4
27/01:00am 21.1 23.0 19.7 92 0.9 SW 9 11 5 6 1011.7 1011.6 10.4
27/12:30am 21.5 23.2 19.4 88 1.3 W 9 13 5 7 1012.4 1012.3 10.4
27/12:00am 21.8 23.3 19.7 88 1.3 NNW 11 15 6 8 1012.0 1011.9 10.4
 
Date/Time
EST
Temp
°C
App
Temp
°C
Dew
Point
°C
Rel
Hum
%
Delta-T
°C
Wind Press
QNH
hPa
Press
MSL
hPa
Rain since
9am
mm
Dir  Spd
km/h
Gust
km/h
Spd
kts
Gust
kts
26/11:30pm 21.6 23.2 19.2 86 1.5 NW 9 13 5 7 1012.2 1012.1 10.4
26/11:00pm 21.5 23.2 19.4 88 1.3 WNW 9 13 5 7 1012.5 1012.4 10.4
26/10:30pm 21.2 22.7 19.7 91 1.0 NW 11 17 6 9 1012.9 1012.8 10.4
26/10:00pm 21.3 23.0 20.1 93 0.8 WNW 11 17 6 9 1012.7 1012.6 10.4
26/09:30pm 21.4 23.8 20.0 92 0.9 W 7 13 4 7 1012.7 1012.6 10.4
26/09:00pm 21.7 24.5 20.9 95 0.5 W 7 11 4 6 1012.3 1012.2 10.4
26/08:30pm 21.7 24.4 20.7 94 0.6 W 7 11 4 6 1012.7 1012.6 10.4
26/08:00pm 21.6 22.8 20.6 94 0.6 NNW 15 22 8 12 1012.2 1012.1 10.4
26/07:30pm 22.7 23.6 20.8 89 1.2 ESE 17 26 9 14 1010.9 1010.8 10.4
26/07:00pm 22.0 23.4 20.3 90 1.1 ESE 13 20 7 11 1011.1 1011.0 10.4
26/06:30pm 21.2 23.1 20.5 96 0.5 NNW 11 19 6 10 1011.9 1011.8 10.2
26/06:00pm 21.6 22.9 20.9 96 0.5 WSW 15 22 8 12 1012.1 1012.0 9.0
26/05:30pm 23.3 25.0 21.7 91 1.1 WSW 15 28 8 15 1011.7 1011.6 3.2
26/05:00pm 24.2 27.1 22.5 90 1.1 N 11 17 6 9 1009.8 1009.7 0.2
26/04:30pm 25.5 27.4 21.4 78 2.7 N 13 20 7 11 1009.0 1008.9 0.0
26/04:00pm 25.6 27.6 21.5 78 2.7 N 13 24 7 13 1008.2 1008.1 0.0
26/03:30pm 26.5 28.5 21.5 74 3.3 NNE 13 24 7 13 1009.0 1008.9 0.0
26/03:00pm 27.5 30.1 22.0 72 3.7 NNE 11 22 6 12 1009.3 1009.2 0.0
26/02:30pm 27.6 29.4 21.9 71 3.8 NNE 15 28 8 15 1008.6 1008.5 0.0
26/02:00pm 26.9 28.0 21.9 74 3.4 N 19 30 10 16 1008.2 1008.1 0.0
26/01:30pm 28.1 29.5 21.9 69 4.2 NNE 17 32 9 17 1009.0 1008.9 0.0
26/01:00pm 29.9 31.3 21.8 62 5.5 NNE 17 26 9 14 1009.3 1009.2 0.0
26/12:30pm 31.7 33.8 22.4 58 6.4 N 15 26 8 14 1010.1 1010.0 0.0
26/12:00pm 32.5 34.3 22.6 56 6.8 N 17 28 9 15 1010.3 1010.2 0.0
26/11:30am 31.2 32.2 21.7 57 6.4 N 19 28 10 15 1010.5 1010.4 0.0
26/11:00am 30.9 32.5 22.2 59 5.9 N 17 30 9 16 1011.0 1010.9 0.0
26/10:30am 30.4 32.3 22.0 60 5.7 N 15 28 8 15 1011.4 1011.3 0.0
26/10:00am 31.0 33.9 23.1 63 5.4 N 13 20 7 11 1011.7 1011.6 0.0
26/09:30am 29.1 30.4 21.6 64 5.0 N 17 28 9 15 1011.7 1011.6 0.0
26/09:00am 28.0 29.2 22.2 70 3.9 N 19 28 10 15 1011.9 1011.8 3.8
26/08:30am 27.8 29.9 22.5 73 3.6 N 15 24 8 13 1011.7 1011.6 3.8
26/08:00am 27.5 29.4 22.0 72 3.7 N 15 22 8 12 1011.5 1011.4 3.8
26/07:30am 26.6 29.3 22.9 80 2.5 N 13 22 7 12 1011.2 1011.1 3.8
26/07:11am 26.3 29.4 22.8 81 2.4 N 11 20 6 11 1011.3 1011.2 3.8
26/07:01am 25.8 28.9 23.5 87 1.6 N 13 20 7 11 1011.1 1011.0 3.8
26/07:00am 25.5 28.3 23.0 86 1.7 N 13 20 7 11 1011.1 1011.0 3.8
26/06:30am 24.1 27.2 22.2 89 1.3 N 9 17 5 9 1011.1 1011.0 3.8
26/06:00am 23.3 26.3 21.9 92 0.9 NNW 9 13 5 7 1011.1 1011.0 3.8
26/05:30am 23.0 26.4 22.0 94 0.7 N 7 9 4 5 1010.6 1010.5 3.8
26/05:00am 23.1 26.4 21.9 93 0.8 NW 7 9 4 5 1010.4 1010.3 3.8
26/04:30am 23.3 26.3 21.9 92 0.9 NNW 9 13 5 7 1010.2 1010.1 3.8
26/04:00am 23.4 26.7 21.8 91 1.1 N 7 11 4 6 1009.8 1009.7 3.8
26/03:30am 23.9 27.0 22.2 90 1.1 N 9 17 5 9 1009.8 1009.7 3.8
26/03:00am 23.9 27.0 22.2 90 1.1 N 9 13 5 7 1009.8 1009.7 3.8
26/02:30am 23.9 27.4 22.2 90 1.1 N 7 13 4 7 1009.8 1009.7 3.8
26/02:27am 23.9 27.4 22.2 90 1.1 N 7 11 4 6 1009.8 1009.7 3.8
26/02:07am 23.8 26.9 22.2 91 1.1 N 9 11 5 6 1009.9 1009.8 3.8
26/02:00am 23.7 27.2 22.1 91 1.1 N 7 9 4 5 1010.0 1009.9 3.8
26/01:39am 23.7 26.8 22.1 91 1.1 N 9 15 5 8 1010.1 1010.0 3.8
26/01:30am 23.8 26.9 22.1 90 1.1 N 9 15 5 8 1010.2 1010.1 3.8
26/01:25am 23.9 27.0 22.2 90 1.1 N 9 15 5 8 1010.2 1010.1 3.8
26/01:00am 24.1 27.6 22.2 89 1.3 N 7 11 4 6 1010.4 1010.3 3.8
26/12:30am 24.4 28.1 22.5 89 1.3 N 7 13 4 7 1010.9 1010.8 3.8
26/12:00am 24.5 27.4 22.4 88 1.4 N 11 17 6 9 1011.1 1011.0 3.8
 
Date/Time
EST
Temp
°C
App
Temp
°C
Dew
Point
°C
Rel
Hum
%
Delta-T
°C
Wind Press
QNH
hPa
Press
MSL
hPa
Rain since
9am
mm
Dir  Spd
km/h
Gust
km/h
Spd
kts
Gust
kts
25/11:30pm 24.4 26.7 22.1 87 1.5 N 13 20 7 11 1011.0 1010.9 3.8
25/11:01pm 24.4 26.3 22.1 87 1.5 N 15 22 8 12 1011.1 1011.0 3.8
25/11:00pm 24.4 26.3 22.1 87 1.5 N 15 22 8 12 1011.2 1011.1 3.8
25/10:30pm 24.3 26.7 22.2 88 1.4 NNW 13 19 7 10 1011.4 1011.3 3.8
25/10:00pm 24.3 26.3 22.2 88 1.4 N 15 26 8 14 1011.3 1011.2 3.8
25/09:30pm 24.1 25.6 22.0 88 1.4 N 17 26 9 14 1011.0 1010.9 3.8
25/09:28pm 24.2 25.8 22.1 88 1.4 N 17 26 9 14 1011.0 1010.9 3.8
25/09:00pm 24.1 26.1 22.2 89 1.3 N 15 24 8 13 1010.6 1010.5 3.8
25/08:30pm 24.1 26.5 22.2 89 1.3 N 13 24 7 13 1010.6 1010.5 3.8
25/08:00pm 24.1 26.0 22.0 88 1.4 N 15 28 8 15 1010.3 1010.2 3.8
25/07:30pm 24.2 25.6 21.9 87 1.5 N 17 28 9 15 1010.0 1009.9 3.8
25/07:00pm 24.2 26.1 22.1 88 1.4 N 15 26 8 14 1009.8 1009.7 3.8
25/06:30pm 24.2 25.9 22.3 89 1.3 N 17 28 9 15 1009.5 1009.4 3.8
25/06:00pm 24.3 26.7 22.2 88 1.4 N 13 20 7 11 1009.5 1009.4 3.8
25/05:30pm 24.9 26.4 22.0 84 1.9 N 17 32 9 17 1009.1 1009.0 3.8
25/05:00pm 25.4 26.9 22.7 85 1.8 N 19 35 10 19 1008.6 1008.5 3.8
25/04:30pm 24.5 26.4 22.8 90 1.1 N 17 28 9 15 1008.6 1008.5 3.8
25/04:00pm 25.3 27.2 23.5 90 1.2 NNE 19 33 10 18 1008.4 1008.3 3.8
25/03:55pm 25.1 26.9 23.3 90 1.2 NNE 19 33 10 18 1008.5 1008.4 3.8
25/03:38pm 25.5 27.7 24.3 93 0.8 NNE 20 35 11 19 1008.6 1008.5 3.8
25/03:30pm 25.3 27.1 23.2 88 1.4 NNE 19 30 10 16 1008.2 1008.1 3.6
25/03:00pm 26.2 27.8 21.4 75 3.2 NNE 15 24 8 13 1009.4 1009.3 0.0
25/02:30pm 27.6 29.2 21.4 69 4.1 NNE 15 24 8 13 1009.3 1009.2 0.0
25/02:00pm 32.2 34.4 23.2 59 6.2 NNE 17 26 9 14 1009.7 1009.6 0.0
25/01:59pm 31.8 33.7 22.8 59 6.2 NNE 17 32 9 17 1009.7 1009.6 0.0
25/01:30pm 30.9 32.1 22.2 59 5.9 NNE 19 32 10 17 1009.5 1009.4 0.0
25/01:18pm 31.0 32.0 21.8 58 6.2 NNE 19 35 10 19 1009.5 1009.4 0.0
25/01:00pm 31.6 33.1 22.0 56 6.5 N 17 33 9 18 1009.6 1009.5 0.0
25/12:30pm 31.5 33.3 22.5 59 6.2 NNE 17 32 9 17 1010.1 1010.0 0.0
25/12:00pm 29.9 30.7 21.3 60 5.8 N 19 32 10 17 1010.8 1010.7 0.0
25/11:30am 28.9 29.0 20.4 60 5.6 N 20 32 11 17 1011.3 1011.2 0.0
25/11:00am 29.4 30.3 21.6 63 5.2 N 19 33 10 18 1011.7 1011.6 0.0
25/10:30am 29.1 30.0 21.6 64 5.0 N 19 28 10 15 1012.0 1011.9 0.0
25/10:00am 30.2 32.3 23.1 65 4.9 N 17 24 9 13 1012.3 1012.2 0.0
25/09:30am 28.8 30.8 22.3 68 4.4 N 15 24 8 13 1012.6 1012.5 0.0
25/09:00am 27.0 29.1 21.7 73 3.5 N 13 20 7 11 1012.5 1012.4 0.0
25/08:30am 26.8 27.8 21.1 71 3.8 N 17 26 9 14 1012.6 1012.5 0.0
25/08:00am 27.8 29.8 22.3 72 3.7 N 15 22 8 12 1012.4 1012.3 0.0
25/07:50am 26.2 27.4 21.4 75 3.2 N 17 30 9 16 1012.5 1012.4 0.0
25/07:30am 26.6 28.2 22.2 77 3.0 N 17 26 9 14 1012.3 1012.2 0.0
25/07:00am 25.4 27.9 21.7 80 2.5 N 11 20 6 11 1012.1 1012.0 0.0
25/06:30am 24.8 26.6 21.9 84 1.9 N 15 24 8 13 1011.8 1011.7 0.0
25/06:29am 24.7 26.5 21.8 84 1.9 N 15 24 8 13 1011.8 1011.7 0.0
25/06:00am 24.4 26.9 21.7 85 1.8 N 11 17 6 9 1011.3 1011.2 0.0
25/05:30am 24.2 27.0 21.5 85 1.8 N 9 15 5 8 1011.2 1011.1 0.0
25/05:00am 24.2 27.0 21.5 85 1.8 NNW 9 17 5 9 1010.9 1010.8 0.0
25/04:30am 24.1 26.7 21.2 84 1.9 NNW 9 15 5 8 1010.6 1010.5 0.0
25/04:00am 24.1 26.3 21.2 84 1.9 N 11 22 6 12 1010.1 1010.0 0.0
25/03:35am 24.2 26.5 21.3 84 1.9 NNW 11 17 6 9 1009.9 1009.8 0.0
25/03:30am 24.2 26.5 21.3 84 1.9 NNW 11 17 6 9 1009.8 1009.7 0.0
25/03:22am 24.2 26.1 21.3 84 1.9 NNW 13 19 7 10 1009.7 1009.6 0.0
25/03:00am 24.0 26.5 21.1 84 1.9 N 9 13 5 7 1009.6 1009.5 0.0
25/02:30am 24.2 26.0 21.1 83 2.0 NNW 13 20 7 11 1010.1 1010.0 0.0
25/02:00am 24.2 25.9 20.9 82 2.2 NNW 13 20 7 11 1010.2 1010.1 0.0
25/01:30am 24.3 26.0 21.0 82 2.2 N 13 22 7 12 1010.3 1010.2 0.0
25/01:00am 24.3 25.7 21.0 82 2.2 N 15 22 8 12 1010.9 1010.8 0.0
25/12:30am 24.1 25.7 20.8 82 2.2 N 13 19 7 10 1011.2 1011.1 0.0
25/12:00am 24.3 25.9 20.8 81 2.3 NNW 13 20 7 11 1011.9 1011.8 0.0
 
Date/Time
EST
Temp
°C
App
Temp
°C
Dew
Point
°C
Rel
Hum
%
Delta-T
°C
Wind Press
QNH
hPa
Press
MSL
hPa
Rain since
9am
mm
Dir  Spd
km/h
Gust
km/h
Spd
kts
Gust
kts
24/11:30pm 24.2 25.4 20.7 81 2.3 N 15 24 8 13 1011.9 1011.8 0.0
24/11:00pm 24.2 25.8 20.7 81 2.3 N 13 20 7 11 1012.1 1012.0 0.0
24/10:30pm 24.5 26.1 20.8 80 2.4 N 13 20 7 11 1011.8 1011.7 0.0
24/10:00pm 24.7 25.7 21.0 80 2.4 NNW 17 28 9 15 1012.0 1011.9 0.0
24/09:30pm 24.7 25.3 21.0 80 2.4 N 19 30 10 16 1011.6 1011.5 0.0
24/09:00pm 24.7 26.1 21.0 80 2.4 N 15 26 8 14 1011.6 1011.5 0.0
24/08:30pm 24.8 26.1 20.9 79 2.6 N 15 28 8 15 1011.3 1011.2 0.0
24/08:00pm 24.5 25.8 20.8 80 2.4 N 15 26 8 14 1011.3 1011.2 0.0
24/07:30pm 24.8 25.8 21.1 80 2.4 N 17 30 9 16 1011.3 1011.2 0.0
24/07:00pm 25.0 26.4 21.1 79 2.6 N 15 28 8 15 1011.1 1011.0 0.0
24/06:30pm 25.0 26.6 21.5 81 2.3 N 15 26 8 14 1011.0 1010.9 0.0
24/06:00pm 25.1 26.1 21.0 78 2.7 NNE 17 28 9 15 1010.3 1010.2 0.0
24/05:30pm 25.5 26.9 21.0 76 3.0 N 15 30 8 16 1010.2 1010.1 0.0
24/05:00pm 26.0 27.0 21.0 74 3.3 N 17 32 9 17 1010.2 1010.1 0.0
24/04:30pm 26.4 28.0 20.7 71 3.8 N 13 24 7 13 1010.0 1009.9 0.0
24/04:00pm 26.9 28.1 20.7 69 4.1 N 15 26 8 14 1010.0 1009.9 0.0
24/03:30pm 28.6 29.1 20.9 63 5.1 N 19 30 10 16 1009.5 1009.4 0.0
24/03:00pm 28.7 29.4 21.5 65 4.8 NNE 20 32 11 17 1009.2 1009.1 0.0
24/02:30pm 28.2 29.7 21.2 65 4.7 N 15 26 8 14 1009.5 1009.4 0.0
24/02:00pm 27.3 28.3 21.1 69 4.1 N 17 28 9 15 1010.2 1010.1 0.0
24/01:30pm 27.3 27.7 20.6 67 4.4 N 19 28 10 15 1010.8 1010.7 0.0
24/01:00pm 27.7 28.0 20.8 66 4.6 NNE 20 39 11 21 1010.5 1010.4 0.0
24/12:30pm 27.7 28.3 21.3 68 4.3 NNE 20 33 11 18 1010.6 1010.5 0.0
24/12:00pm 28.9 30.5 21.4 64 5.0 N 15 26 8 14 1012.1 1012.0 0.0
24/11:30am 27.4 29.0 21.4 70 4.0 N 15 26 8 14 1013.5 1013.4 0.0
24/11:00am 27.9 28.7 20.7 65 4.8 N 17 26 9 14 1013.9 1013.8 0.0
24/10:30am 29.4 31.0 21.4 62 5.4 N 15 26 8 14 1014.2 1014.1 0.0
24/10:00am 28.4 30.8 22.2 69 4.2 N 13 20 7 11 1014.4 1014.3 0.0
24/09:30am 26.5 28.1 20.8 71 3.8 N 13 24 7 13 1014.7 1014.6 0.0
24/09:00am 26.4 27.0 20.3 69 4.0 N 17 26 9 14 1014.6 1014.5 0.0
24/08:30am 26.5 27.9 21.0 72 3.6 N 15 24 8 13 1014.6 1014.5 0.0
24/08:00am 25.1 26.7 20.8 77 2.8 N 13 20 7 11 1014.7 1014.6 0.0
24/07:30am 25.1 27.1 20.8 77 2.8 N 11 19 6 10 1014.1 1014.0 0.0

Other formats

Comma delimited format used in spreadsheet applications
http://www.bom.gov.au/fwo/IDQ60801/IDQ60801.94367.axf

JavaScript Object Notation format (JSON) in row-major order
http://www.bom.gov.au/fwo/IDQ60801/IDQ60801.94367.json

Data quality

Most of these data are generated automatically and are frequently updated. Quality checks on data are not normally performed. It is possible for incorrect values to appear. Refer to information at About Latest Weather Observations and please check the disclaimer before using these data.